createdAt,value
2024-03-05T00:00:13.350Z,96780.22
2024-03-05T00:02:41.937Z,96779.25
2024-03-05T00:05:15.582Z,96725.81
2024-03-05T00:07:44.716Z,96750.59
2024-03-05T00:10:14.481Z,96750.66
2024-03-05T00:12:43.173Z,96774.59
2024-03-05T00:15:13.568Z,96771.44
2024-03-05T00:17:41.982Z,96751.81
2024-03-05T00:20:19.806Z,96788.50
2024-03-05T00:22:50.103Z,96794.38
2024-03-05T00:25:19.095Z,96780.69
2024-03-05T00:27:47.579Z,96775.72
2024-03-05T00:30:19.949Z,96794.97
2024-03-05T00:32:49.130Z,96796.91
2024-03-05T00:35:18.125Z,96804.06
2024-03-05T00:37:46.825Z,96753.44
2024-03-05T00:40:15.897Z,96789.53
2024-03-05T00:42:44.510Z,96802.63
2024-03-05T00:45:13.800Z,96784.91
2024-03-05T00:47:44.005Z,96807.22
2024-03-05T00:50:14.947Z,96807.41
2024-03-05T00:52:44.075Z,96799.09
2024-03-05T00:55:12.476Z,96793.09
2024-03-05T00:57:41.179Z,96796.50
2024-03-05T01:00:10.847Z,96787.28
2024-03-05T01:02:39.242Z,96512.34
2024-03-05T01:05:11.449Z,96777.06
2024-03-05T01:07:39.964Z,96823.53
2024-03-05T01:10:09.383Z,96773.75
2024-03-05T01:12:37.933Z,96808.91
2024-03-05T01:15:07.327Z,96807.44
2024-03-05T01:17:34.830Z,96805.81
2024-03-05T01:20:04.782Z,96803.44
2024-03-05T01:22:34.943Z,96804.97
2024-03-05T01:25:03.472Z,96816.22
2024-03-05T01:27:31.897Z,96808.75
2024-03-05T01:30:01.383Z,96817.31
2024-03-05T01:32:31.001Z,96811.84
2024-03-05T01:34:59.426Z,96818.94
2024-03-05T01:37:27.959Z,96818.50
2024-03-05T01:40:00.581Z,96819.31
2024-03-05T01:42:29.014Z,96788.69
2024-03-05T01:44:58.824Z,96771.97
2024-03-05T01:47:28.205Z,96726.16
2024-03-05T01:49:57.571Z,96808.97
2024-03-05T01:52:26.240Z,96812.13
2024-03-05T01:55:00.194Z,96791.56
2024-03-05T01:57:30.470Z,96805.94
2024-03-05T01:59:58.993Z,96816.75
2024-03-05T02:02:27.462Z,96776.69
2024-03-05T02:04:57.425Z,96779.44
2024-03-05T02:07:26.576Z,96795.47
2024-03-05T02:09:55.400Z,96817.75
2024-03-05T02:12:23.870Z,96729.75
2024-03-05T02:14:53.801Z,96815.34
2024-03-05T02:17:22.993Z,96770.13
2024-03-05T02:19:53.175Z,96797.97
2024-03-05T02:22:23.351Z,96825.50
2024-03-05T02:24:51.717Z,96809.38
2024-03-05T02:27:27.004Z,96829.16
2024-03-05T02:29:59.765Z,96832.91
2024-03-05T02:32:28.750Z,96817.50
2024-03-05T02:34:57.282Z,96816.16
2024-03-05T02:37:27.928Z,96830.50
2024-03-05T02:39:56.400Z,96834.16
2024-03-05T02:42:24.952Z,96824.84
2024-03-05T02:44:53.644Z,96845.56
2024-03-05T02:47:22.117Z,96843.63
2024-03-05T02:49:51.256Z,96843.81
2024-03-05T02:52:19.726Z,96844.81
2024-03-05T02:54:49.654Z,96842.41
2024-03-05T02:57:18.101Z,96815.63
2024-03-05T02:59:46.675Z,96857.91
2024-03-05T03:02:15.149Z,96843.41
2024-03-05T03:04:43.617Z,96850.34
2024-03-05T03:07:13.485Z,96858.19
2024-03-05T03:09:41.938Z,96861.78
2024-03-05T03:12:12.114Z,96837.91
2024-03-05T03:14:44.741Z,96870.31
2024-03-05T03:17:13.421Z,96855.03
2024-03-05T03:19:42.244Z,96865.06
2024-03-05T03:22:10.702Z,96852.22
2024-03-05T03:24:39.301Z,96872.75
2024-03-05T03:27:07.645Z,96870.34
2024-03-05T03:29:41.521Z,96881.88
2024-03-05T03:32:11.417Z,96879.38
2024-03-05T03:34:42.613Z,96880.31
2024-03-05T03:37:11.041Z,96883.84
2024-03-05T03:39:38.385Z,96879.69
2024-03-05T03:42:07.246Z,96819.19
2024-03-05T03:44:38.746Z,96886.59
2024-03-05T03:47:07.613Z,96892.72
2024-03-05T03:49:37.192Z,96893.69
2024-03-05T03:52:06.608Z,96893.66
2024-03-05T03:54:34.905Z,96904.88
2024-03-05T03:57:03.601Z,96858.50
2024-03-05T03:59:31.909Z,96872.22
2024-03-05T04:02:01.854Z,96897.09
2024-03-05T04:04:30.247Z,96893.00
2024-03-05T04:06:58.632Z,96903.38
2024-03-05T04:09:26.952Z,96906.03
2024-03-05T04:11:56.065Z,96907.03
2024-03-05T04:14:24.513Z,96913.88
2024-03-05T04:16:53.580Z,96909.28
2024-03-05T04:19:23.453Z,96913.75
2024-03-05T04:21:51.974Z,96913.03
2024-03-05T04:24:21.698Z,96918.34
2024-03-05T04:26:54.170Z,96908.03
2024-03-05T04:29:31.254Z,96919.44
2024-03-05T04:32:10.108Z,96913.94
2024-03-05T04:34:43.765Z,96918.44
2024-03-05T04:37:12.499Z,96911.72
2024-03-05T04:39:43.906Z,96808.16
2024-03-05T04:42:13.179Z,96933.34
2024-03-05T04:44:44.997Z,96836.59
2024-03-05T04:47:13.402Z,96915.94
2024-03-05T04:49:43.275Z,96916.84
2024-03-05T04:52:12.560Z,96923.53
2024-03-05T04:54:41.066Z,96928.94
2024-03-05T04:57:09.660Z,96935.25
2024-03-05T04:59:38.398Z,96930.09
2024-03-05T05:02:08.612Z,96826.56
2024-03-05T05:04:39.475Z,96894.09
2024-03-05T05:07:09.729Z,96938.63
2024-03-05T05:09:38.750Z,96932.09
2024-03-05T05:12:07.649Z,96935.69
2024-03-05T05:14:38.954Z,96945.31
2024-03-05T05:17:07.611Z,96936.50
2024-03-05T05:19:35.932Z,96946.09
2024-03-05T05:22:05.964Z,96954.84
2024-03-05T05:24:36.725Z,96938.44
2024-03-05T05:27:05.350Z,96932.47
2024-03-05T05:29:40.506Z,96959.16
2024-03-05T05:32:11.063Z,96951.38
2024-03-05T05:34:39.832Z,96940.34
2024-03-05T05:37:08.429Z,96952.06
2024-03-05T05:39:38.406Z,96952.16
2024-03-05T05:42:09.205Z,96940.28
2024-03-05T05:44:37.692Z,96926.53
2024-03-05T05:47:06.420Z,96905.03
2024-03-05T05:49:34.929Z,96953.13
2024-03-05T05:52:03.293Z,96968.47
2024-03-05T05:54:31.806Z,96935.88
2024-03-05T05:57:02.324Z,96953.88
2024-03-05T05:59:30.811Z,96973.31
2024-03-05T06:01:59.161Z,96982.81
2024-03-05T06:04:28.185Z,97003.50
2024-03-05T06:06:58.008Z,96981.78
2024-03-05T06:09:29.697Z,96972.31
2024-03-05T06:11:58.288Z,96977.22
2024-03-05T06:14:28.170Z,96996.81
2024-03-05T06:16:56.790Z,96992.16
2024-03-05T06:19:26.490Z,96996.50
2024-03-05T06:21:56.453Z,96997.25
2024-03-05T06:24:25.154Z,97005.53
2024-03-05T06:26:53.754Z,96993.16
2024-03-05T06:29:22.992Z,97005.03
2024-03-05T06:31:52.837Z,96991.00
2024-03-05T06:34:21.389Z,97004.31
2024-03-05T06:36:55.077Z,97005.84
2024-03-05T06:39:30.898Z,96990.53
2024-03-05T06:41:59.909Z,97011.22
2024-03-05T06:44:37.404Z,97007.34
2024-03-05T06:47:07.551Z,97008.53
2024-03-05T06:49:41.304Z,97009.88
2024-03-05T06:52:27.706Z,97009.44
2024-03-05T06:55:15.536Z,97016.88
2024-03-05T06:57:43.928Z,97008.59
2024-03-05T07:00:18.818Z,96979.22
2024-03-05T07:02:48.756Z,97012.09
2024-03-05T07:05:17.130Z,97022.50
2024-03-05T07:07:45.567Z,97019.03
2024-03-05T07:10:16.084Z,97026.63
2024-03-05T07:12:46.357Z,97033.75
2024-03-05T07:15:16.237Z,97016.63
2024-03-05T07:17:45.136Z,97032.47
2024-03-05T07:20:23.838Z,97032.00
2024-03-05T07:22:54.392Z,97009.22
2024-03-05T07:25:25.039Z,96966.94
2024-03-05T07:27:54.473Z,97042.75
2024-03-05T07:30:23.318Z,96838.16
2024-03-05T07:32:51.915Z,97054.13
2024-03-05T07:35:21.993Z,97045.13
2024-03-05T07:37:50.914Z,97033.66
2024-03-05T07:40:22.079Z,97045.06
2024-03-05T07:42:53.093Z,97029.25
2024-03-05T07:45:22.664Z,97050.31
2024-03-05T07:47:52.733Z,97031.00
2024-03-05T07:50:22.718Z,97040.84
2024-03-05T07:52:55.329Z,97034.25
2024-03-05T07:55:29.291Z,97049.59
2024-03-05T07:58:00.509Z,97060.22
2024-03-05T08:00:28.935Z,97039.63
2024-03-05T08:02:57.482Z,97052.41
2024-03-05T08:05:27.853Z,97051.41
2024-03-05T08:07:58.550Z,97027.63
2024-03-05T08:10:27.589Z,97046.63
2024-03-05T08:12:57.151Z,97048.03
2024-03-05T08:15:27.685Z,97047.56
2024-03-05T08:17:57.824Z,97054.91
2024-03-05T08:20:28.902Z,97054.09
2024-03-05T08:22:58.269Z,97056.16
2024-03-05T08:25:27.840Z,97059.78
2024-03-05T08:27:58.149Z,97052.38
2024-03-05T08:30:31.115Z,97066.31
2024-03-05T08:32:59.719Z,97064.72
2024-03-05T08:35:31.068Z,97057.03
2024-03-05T08:38:01.210Z,97071.56
2024-03-05T08:40:34.164Z,97002.19
2024-03-05T08:43:05.339Z,97074.78
2024-03-05T08:45:34.202Z,97073.63
2024-03-05T08:48:03.403Z,97067.59
2024-03-05T08:50:33.465Z,97078.59
2024-03-05T08:53:04.167Z,97078.59
2024-03-05T08:55:32.668Z,97038.53
2024-03-05T08:58:01.953Z,97060.63
2024-03-05T09:00:41.928Z,97084.94
2024-03-05T09:03:13.390Z,97070.28
2024-03-05T09:05:46.507Z,97084.66
2024-03-05T09:08:16.722Z,97054.59
2024-03-05T09:10:46.156Z,97072.22
2024-03-05T09:13:15.808Z,97075.38
2024-03-05T09:15:44.879Z,97085.34
2024-03-05T09:18:15.936Z,97086.09
2024-03-05T09:20:46.268Z,97089.50
2024-03-05T09:23:14.722Z,97092.06
2024-03-05T09:25:43.995Z,97084.97
2024-03-05T09:28:13.041Z,97087.53
2024-03-05T09:30:41.871Z,97099.53
2024-03-05T09:33:11.951Z,97019.50
2024-03-05T09:35:41.221Z,97084.31
2024-03-05T09:38:15.362Z,97084.16
2024-03-05T09:40:43.836Z,97103.75
2024-03-05T09:43:15.181Z,97086.47
2024-03-05T09:45:44.285Z,97111.34
2024-03-05T09:48:15.032Z,97104.91
2024-03-05T09:50:43.495Z,97107.31
2024-03-05T09:53:13.931Z,97113.41
2024-03-05T09:55:43.098Z,97110.75
2024-03-05T09:58:12.440Z,97108.81
2024-03-05T10:00:40.959Z,97109.59
2024-03-05T10:03:09.977Z,97111.31
2024-03-05T10:05:39.099Z,97096.00
2024-03-05T10:08:08.502Z,97094.88
2024-03-05T10:10:38.882Z,97101.06
2024-03-05T10:13:07.887Z,97110.38
2024-03-05T10:15:38.728Z,97103.03
2024-03-05T10:18:08.967Z,97098.00
2024-03-05T10:20:39.437Z,97067.00
2024-03-05T10:23:10.889Z,97079.66
2024-03-05T10:25:41.379Z,97118.03
2024-03-05T10:28:10.594Z,97036.97
2024-03-05T10:30:44.066Z,97107.50
2024-03-05T10:33:14.120Z,97113.53
2024-03-05T10:35:43.400Z,97125.78
2024-03-05T10:38:15.873Z,97115.50
2024-03-05T10:40:47.661Z,97109.72
2024-03-05T10:43:20.010Z,97083.97
2024-03-05T10:45:49.743Z,97074.94
2024-03-05T10:48:22.708Z,97116.00
2024-03-05T10:50:52.946Z,97112.97
2024-03-05T10:53:21.845Z,97096.69
2024-03-05T10:55:54.520Z,97115.56
2024-03-05T10:58:49.414Z,97105.38
2024-03-05T11:01:22.553Z,97095.31
2024-03-05T11:03:56.713Z,97112.22
2024-03-05T11:06:25.669Z,97080.66
2024-03-05T11:08:54.068Z,97116.41
2024-03-05T11:11:26.956Z,97088.16
2024-03-05T11:13:59.187Z,97119.72
2024-03-05T11:16:28.456Z,97119.50
2024-03-05T11:19:00.191Z,97062.78
2024-03-05T11:21:29.556Z,97111.28
2024-03-05T11:23:59.438Z,97067.81
2024-03-05T11:26:32.557Z,97110.13
2024-03-05T11:29:07.943Z,97113.63
2024-03-05T11:31:40.019Z,97096.97
2024-03-05T11:34:14.602Z,97073.66
2024-03-05T11:36:43.227Z,97102.44
2024-03-05T11:39:16.399Z,97101.44
2024-03-05T11:41:47.652Z,97091.91
2024-03-05T11:44:39.323Z,97078.63
2024-03-05T11:47:07.877Z,97106.16
2024-03-05T11:49:38.054Z,97069.88
2024-03-05T11:52:07.331Z,97101.25
2024-03-05T11:54:37.294Z,97079.75
2024-03-05T11:57:09.054Z,97095.84
2024-03-05T11:59:38.537Z,97090.38
2024-03-05T12:02:12.197Z,97099.22
2024-03-05T12:04:41.301Z,97098.91
2024-03-05T12:07:13.692Z,97101.28
2024-03-05T12:09:42.059Z,97013.56
2024-03-05T12:12:13.735Z,97091.72
2024-03-05T12:14:55.667Z,97104.31
2024-03-05T12:17:25.827Z,97048.34
2024-03-05T12:20:06.374Z,97084.75
2024-03-05T12:22:34.818Z,97103.06
2024-03-05T12:25:03.174Z,97106.03
2024-03-05T12:27:35.548Z,97084.06
2024-03-05T12:30:04.329Z,97071.44
2024-03-05T12:32:32.865Z,97102.25
2024-03-05T12:35:01.615Z,97098.88
2024-03-05T12:37:31.109Z,97085.31
2024-03-05T12:40:00.849Z,97091.81
2024-03-05T12:42:29.919Z,97075.53
2024-03-05T12:45:09.329Z,97074.25
2024-03-05T12:47:39.737Z,97058.03
2024-03-05T12:50:10.289Z,97095.38
2024-03-05T12:52:39.240Z,97062.69
2024-03-05T12:55:11.197Z,97100.13
2024-03-05T12:57:40.965Z,97091.97
2024-03-05T13:00:14.972Z,97080.75
2024-03-05T13:02:44.115Z,97092.09
2024-03-05T13:05:12.562Z,97055.31
2024-03-05T13:07:41.252Z,97091.38
2024-03-05T13:10:12.711Z,97080.97
2024-03-05T13:12:43.514Z,97068.66
2024-03-05T13:15:15.679Z,97099.56
2024-03-05T13:17:44.091Z,97069.50
2024-03-05T13:20:20.063Z,97087.66
2024-03-05T13:22:48.799Z,97070.97
2024-03-05T13:25:17.964Z,97086.78
2024-03-05T13:27:47.594Z,97089.53
2024-03-05T13:30:19.441Z,97055.09
2024-03-05T13:32:48.980Z,97070.59
2024-03-05T13:35:18.526Z,97094.00
2024-03-05T13:37:49.194Z,97095.78
2024-03-05T13:40:20.649Z,97083.88
2024-03-05T13:42:50.657Z,97094.13
2024-03-05T13:45:20.636Z,97056.59
2024-03-05T13:47:49.518Z,97066.22
2024-03-05T13:50:19.555Z,97095.09
2024-03-05T13:52:50.023Z,97034.03
2024-03-05T13:55:19.298Z,97088.75
2024-03-05T13:57:49.629Z,97086.00
2024-03-05T14:00:22.133Z,97070.00
2024-03-05T14:02:52.879Z,97090.50
2024-03-05T14:05:23.257Z,97092.97
2024-03-05T14:07:52.148Z,97063.44
2024-03-05T14:10:20.748Z,97087.56
2024-03-05T14:12:51.049Z,97077.38
2024-03-05T14:15:23.056Z,97099.75
2024-03-05T14:17:52.418Z,97099.00
2024-03-05T14:20:29.762Z,97081.66
2024-03-05T14:23:00.874Z,97085.28
2024-03-05T14:25:31.315Z,97076.47
2024-03-05T14:27:59.901Z,97090.19
2024-03-05T14:30:31.311Z,97071.16
2024-03-05T14:33:01.099Z,97080.66
2024-03-05T14:35:29.993Z,97080.78
2024-03-05T14:38:00.596Z,97067.38
2024-03-05T14:40:29.647Z,97077.97
2024-03-05T14:42:58.138Z,97061.44
2024-03-05T14:45:26.727Z,97072.91
2024-03-05T14:47:56.943Z,97073.69
2024-03-05T14:50:26.300Z,97070.81
2024-03-05T14:52:55.130Z,97077.19
2024-03-05T14:55:26.901Z,97086.56
2024-03-05T14:57:56.075Z,97065.47
2024-03-05T15:00:24.960Z,97093.75
2024-03-05T15:02:54.380Z,97087.91
2024-03-05T15:05:25.475Z,97085.50
2024-03-05T15:07:54.723Z,97086.03
2024-03-05T15:10:24.017Z,97076.59
2024-03-05T15:12:53.778Z,97092.53
2024-03-05T15:15:25.251Z,97097.56
2024-03-05T15:17:54.596Z,97114.75
2024-03-05T15:20:25.636Z,97094.00
2024-03-05T15:22:55.056Z,97112.81
2024-03-05T15:25:24.807Z,97121.94
2024-03-05T15:28:01.748Z,97108.59
2024-03-05T15:30:36.051Z,97134.31
2024-03-05T15:33:05.619Z,97139.13
2024-03-05T15:35:36.861Z,97139.22
2024-03-05T15:38:08.992Z,97128.97
2024-03-05T15:40:39.128Z,97145.00
2024-03-05T15:43:08.805Z,97133.53
2024-03-05T15:45:39.840Z,97141.84
2024-03-05T15:48:12.118Z,97152.44
2024-03-05T15:50:45.977Z,97155.25
2024-03-05T15:53:14.767Z,97023.72
2024-03-05T15:55:46.704Z,97151.75
2024-03-05T15:58:41.506Z,97162.91
2024-03-05T16:01:09.557Z,97145.34
2024-03-05T16:03:47.880Z,97162.38
2024-03-05T16:06:28.979Z,97169.31
2024-03-05T16:08:57.463Z,97173.81
2024-03-05T16:11:27.221Z,97172.75
2024-03-05T16:13:56.019Z,97174.22
2024-03-05T16:16:24.845Z,97186.16
2024-03-05T16:18:53.560Z,97156.72
2024-03-05T16:21:22.002Z,97182.81
2024-03-05T16:23:52.002Z,97188.34
2024-03-05T16:26:21.118Z,97147.88
2024-03-05T16:28:50.704Z,97192.16
2024-03-05T16:31:19.310Z,97194.22
2024-03-05T16:33:48.872Z,97211.44
2024-03-05T16:36:17.335Z,97200.44
2024-03-05T16:38:46.074Z,97108.53
2024-03-05T16:41:15.989Z,97182.81
2024-03-05T16:43:44.666Z,97214.44
2024-03-05T16:46:15.514Z,97192.66
2024-03-05T16:48:43.885Z,97194.00
2024-03-05T16:51:14.018Z,97215.81
2024-03-05T16:53:42.968Z,97175.78
2024-03-05T16:56:12.072Z,97176.09
2024-03-05T16:58:43.146Z,97249.38
2024-03-05T17:01:17.535Z,97234.75
2024-03-05T17:03:46.586Z,97239.03
2024-03-05T17:06:17.535Z,97218.03
2024-03-05T17:08:49.775Z,97241.41
2024-03-05T17:15:13.794Z,97252.91
2024-03-05T17:17:47.388Z,97258.50
2024-03-05T17:20:22.533Z,97260.31
2024-03-05T17:22:52.431Z,97252.91
2024-03-05T17:25:21.825Z,97255.69
2024-03-05T17:27:52.234Z,97265.41
2024-03-05T17:30:22.631Z,97280.41
2024-03-05T17:32:51.751Z,97272.66
2024-03-05T17:35:20.868Z,97242.06
2024-03-05T17:37:49.378Z,97270.53
2024-03-05T17:40:18.154Z,97270.53
2024-03-05T17:42:47.248Z,97288.78
2024-03-05T17:45:17.519Z,97286.22
2024-03-05T17:47:48.559Z,97269.84
2024-03-05T17:50:19.265Z,97288.78
2024-03-05T17:52:49.025Z,97292.66
2024-03-05T17:55:18.183Z,97277.09
2024-03-05T17:57:50.333Z,97273.03
2024-03-05T18:00:28.401Z,97293.44
2024-03-05T18:03:00.181Z,97286.44
2024-03-05T18:05:29.524Z,97285.03
2024-03-05T18:07:58.687Z,97296.13
2024-03-05T18:10:27.400Z,97297.06
2024-03-05T18:12:55.917Z,97288.00
2024-03-05T18:15:25.902Z,97308.75
2024-03-05T18:17:56.155Z,97299.13
2024-03-05T18:20:30.199Z,97310.47
2024-03-05T18:23:01.124Z,97308.63
2024-03-05T18:25:36.082Z,97305.38
2024-03-05T18:28:06.614Z,97303.72
2024-03-05T18:30:37.188Z,97317.00
2024-03-05T18:33:09.231Z,97317.97
2024-03-05T18:35:41.734Z,97268.50
2024-03-05T18:38:21.161Z,97309.53
2024-03-05T18:40:58.255Z,97324.28
2024-03-05T18:43:30.117Z,97320.88
2024-03-05T18:46:00.859Z,97321.78
2024-03-05T18:48:31.162Z,97302.22
2024-03-05T18:51:02.330Z,97305.78
2024-03-05T18:53:39.536Z,97324.34
2024-03-05T18:56:14.085Z,97319.94
2024-03-05T18:58:44.676Z,97323.47
2024-03-05T19:01:15.765Z,97312.38
2024-03-05T19:03:46.582Z,97326.94
2024-03-05T19:06:19.270Z,97307.19
2024-03-05T19:08:48.388Z,97313.13
2024-03-05T19:11:17.515Z,97308.03
2024-03-05T19:13:51.935Z,97243.75
2024-03-05T19:16:20.492Z,97319.94
2024-03-05T19:18:54.252Z,97289.97
2024-03-05T19:21:52.160Z,97322.72
2024-03-05T19:24:22.640Z,97319.19
2024-03-05T19:26:55.106Z,97321.22
2024-03-05T19:29:25.035Z,97319.66
2024-03-05T19:31:57.116Z,97328.63
2024-03-05T19:34:27.050Z,97320.56
2024-03-05T19:36:58.984Z,97296.63
2024-03-05T19:39:30.710Z,97325.03
2024-03-05T19:42:00.443Z,97291.75
2024-03-05T19:44:29.067Z,97328.56
2024-03-05T19:46:59.247Z,97330.28
2024-03-05T19:49:29.405Z,97327.78
2024-03-05T19:52:00.699Z,97321.69
2024-03-05T19:54:29.356Z,97318.59
2024-03-05T19:56:58.328Z,97329.63
2024-03-05T19:59:27.738Z,97339.03
2024-03-05T20:01:56.926Z,97344.19
2024-03-05T20:04:25.446Z,97347.16
2024-03-05T20:06:55.229Z,97330.88
2024-03-05T20:09:26.444Z,97349.22
2024-03-05T20:11:55.920Z,97348.31
2024-03-05T20:14:24.637Z,97348.31
2024-03-05T20:16:54.716Z,97330.59
2024-03-05T20:19:25.630Z,97352.13
2024-03-05T20:21:54.421Z,97352.94
2024-03-05T20:24:24.947Z,97325.56
2024-03-05T20:26:53.460Z,97357.38
2024-03-05T20:29:23.945Z,97341.84
2024-03-05T20:31:53.405Z,97345.25
2024-03-05T20:34:24.397Z,97357.31
2024-03-05T20:36:53.314Z,97341.84
2024-03-05T20:39:22.886Z,97353.69
2024-03-05T20:41:53.217Z,97358.16
2024-03-05T20:44:22.556Z,97354.94
2024-03-05T20:46:51.130Z,97356.78
2024-03-05T20:49:20.273Z,97347.38
2024-03-05T20:51:49.257Z,97344.28
2024-03-05T20:54:17.968Z,97348.72
2024-03-05T20:56:46.717Z,97263.16
2024-03-05T20:59:19.379Z,97364.44
2024-03-05T21:01:49.183Z,97373.19
2024-03-05T21:04:17.938Z,97369.78
2024-03-05T21:06:46.589Z,97297.75
2024-03-05T21:09:18.622Z,97366.84
2024-03-05T21:11:48.492Z,97369.53
2024-03-05T21:14:19.512Z,97372.16
2024-03-05T21:16:48.773Z,97330.84
2024-03-05T21:19:17.770Z,97370.19
2024-03-05T21:21:46.444Z,97375.63
2024-03-05T21:24:14.945Z,97367.78
2024-03-05T21:26:54.651Z,97361.09
2024-03-05T21:29:33.852Z,97376.72
2024-03-05T21:32:04.986Z,97380.25
2024-03-05T21:34:38.225Z,97365.66
2024-03-05T21:37:07.719Z,97355.34
2024-03-05T21:39:36.480Z,97380.38
2024-03-05T21:42:05.631Z,97340.97
2024-03-05T21:44:41.724Z,97383.72
2024-03-05T21:47:11.310Z,97329.09
2024-03-05T21:49:40.485Z,97387.63
2024-03-05T21:52:08.902Z,97389.44
2024-03-05T21:54:37.368Z,97388.66
2024-03-05T21:57:07.045Z,97394.03
2024-03-05T21:59:38.334Z,97398.44
2024-03-05T22:02:08.805Z,97382.19
2024-03-05T22:04:38.525Z,97387.28
2024-03-05T22:07:07.777Z,97383.94
2024-03-05T22:09:38.794Z,97382.44
2024-03-05T22:12:09.062Z,97407.56
2024-03-05T22:14:40.341Z,97387.00
2024-03-05T22:17:10.136Z,97403.31
2024-03-05T22:19:39.132Z,97311.47
2024-03-05T22:22:07.595Z,97404.31
2024-03-05T22:24:35.917Z,97400.19
2024-03-05T22:27:04.982Z,97372.81
2024-03-05T22:29:33.755Z,97399.59
2024-03-05T22:32:04.276Z,97385.09
2024-03-05T22:34:35.386Z,97385.13
2024-03-05T22:37:04.590Z,97390.47
2024-03-05T22:39:33.129Z,97413.09
2024-03-05T22:42:01.653Z,97413.16
2024-03-05T22:44:30.119Z,97415.78
2024-03-05T22:46:58.517Z,97401.28
2024-03-05T22:49:28.314Z,97422.91
2024-03-05T22:51:57.094Z,97410.13
2024-03-05T22:54:25.559Z,97426.72
2024-03-05T22:56:53.933Z,97394.06
2024-03-05T22:59:22.684Z,97422.50
2024-03-05T23:01:51.082Z,97413.19
2024-03-05T23:04:19.990Z,97402.03
2024-03-05T23:06:50.022Z,97428.72
2024-03-05T23:09:18.562Z,97415.81
2024-03-05T23:11:47.575Z,97419.19
2024-03-05T23:14:16.726Z,97416.53
2024-03-05T23:16:46.565Z,97375.38
2024-03-05T23:19:15.088Z,97402.72
2024-03-05T23:21:44.466Z,97331.31
2024-03-05T23:24:14.425Z,97426.47
2024-03-05T23:26:42.970Z,97415.28
2024-03-05T23:29:12.579Z,97422.19
2024-03-05T23:31:41.097Z,97409.53
2024-03-05T23:34:09.579Z,97409.72
2024-03-05T23:36:38.041Z,97436.41
2024-03-05T23:39:06.612Z,97397.88
2024-03-05T23:41:37.013Z,97414.16
2024-03-05T23:44:05.570Z,97431.59
2024-03-05T23:46:33.971Z,97419.53
2024-03-05T23:49:02.252Z,97424.56
2024-03-05T23:51:30.589Z,97414.41
2024-03-05T23:53:58.947Z,97336.31
2024-03-05T23:56:27.365Z,97168.25
2024-03-05T23:58:57.147Z,97417.09
